createdAt,value
2022-10-06T00:00:02.274Z,5.28
2022-10-06T00:00:34.943Z,5.57
2022-10-06T00:01:11.473Z,6.05
2022-10-06T00:01:43.424Z,5.75
2022-10-06T00:02:15.370Z,6.47
2022-10-06T00:02:47.438Z,5.40
2022-10-06T00:03:23.068Z,5.65
2022-10-06T00:03:54.956Z,6.28
2022-10-06T00:04:26.810Z,5.63
2022-10-06T00:04:58.682Z,5.38
2022-10-06T00:05:31.204Z,6.72
2022-10-06T00:06:05.157Z,5.38
2022-10-06T00:06:37.025Z,5.95
2022-10-06T00:07:09.050Z,6.18
2022-10-06T00:07:40.929Z,6.35
2022-10-06T00:08:12.802Z,6.10
2022-10-06T00:08:46.896Z,5.13
2022-10-06T00:09:18.771Z,6.07
2022-10-06T00:09:50.632Z,6.22
2022-10-06T00:10:22.547Z,5.63
2022-10-06T00:10:58.312Z,5.50
2022-10-06T00:11:30.190Z,6.05
2022-10-06T00:12:02.350Z,6.38
2022-10-06T00:12:46.814Z,5.70
2022-10-06T00:13:18.756Z,5.50
2022-10-06T00:13:50.844Z,5.90
2022-10-06T00:14:22.754Z,5.32
2022-10-06T00:14:54.643Z,5.50
2022-10-06T00:15:31.589Z,6.53
2022-10-06T00:16:10.257Z,5.20
2022-10-06T00:16:42.240Z,5.60
2022-10-06T00:17:14.123Z,5.82
2022-10-06T00:17:46.016Z,5.55
2022-10-06T00:18:17.988Z,5.45
2022-10-06T00:18:50.144Z,5.35
2022-10-06T00:19:22.022Z,5.57
2022-10-06T00:19:53.915Z,5.38
2022-10-06T00:20:27.316Z,4.65
2022-10-06T00:21:01.512Z,5.35
2022-10-06T00:21:34.088Z,5.22
2022-10-06T00:22:05.990Z,5.05
2022-10-06T00:22:43.851Z,5.10
2022-10-06T00:23:16.956Z,4.68
2022-10-06T00:23:48.819Z,5.20
2022-10-06T00:24:20.790Z,5.50
2022-10-06T00:24:52.668Z,4.80
2022-10-06T00:25:28.343Z,5.38
2022-10-06T00:26:00.273Z,6.15
2022-10-06T00:26:32.484Z,5.30
2022-10-06T00:27:04.477Z,5.50
2022-10-06T00:27:41.035Z,6.43
2022-10-06T00:28:14.165Z,5.30
2022-10-06T00:28:50.242Z,5.15
2022-10-06T00:29:22.253Z,5.60
2022-10-06T00:29:54.111Z,5.53
2022-10-06T00:30:29.670Z,5.82
2022-10-06T00:31:03.082Z,5.65
2022-10-06T00:31:35.084Z,5.75
2022-10-06T00:32:07.715Z,6.00
2022-10-06T00:32:40.182Z,6.13
2022-10-06T00:33:16.031Z,5.65
2022-10-06T00:33:50.182Z,5.32
2022-10-06T00:34:22.173Z,5.60
2022-10-06T00:34:54.141Z,5.90
2022-10-06T00:35:29.751Z,5.18
2022-10-06T00:36:01.698Z,5.72
2022-10-06T00:36:33.626Z,4.82
2022-10-06T00:37:05.522Z,5.38
2022-10-06T00:37:38.372Z,5.93
2022-10-06T00:38:13.193Z,5.50
2022-10-06T00:38:45.144Z,5.15
2022-10-06T00:39:17.081Z,5.00
2022-10-06T00:39:49.008Z,6.05
2022-10-06T00:40:22.628Z,5.15
2022-10-06T00:40:55.836Z,5.32
2022-10-06T00:41:27.808Z,4.90
2022-10-06T00:42:00.158Z,5.50
2022-10-06T00:42:32.977Z,5.80
2022-10-06T00:43:06.562Z,5.38
2022-10-06T00:43:58.173Z,5.63
2022-10-06T00:44:30.166Z,5.53
2022-10-06T00:45:06.199Z,5.78
2022-10-06T00:45:46.623Z,5.63
2022-10-06T00:46:21.591Z,5.28
2022-10-06T00:46:54.383Z,5.07
2022-10-06T00:47:31.059Z,5.55
2022-10-06T00:48:13.749Z,5.13
2022-10-06T00:48:51.431Z,5.43
2022-10-06T00:49:35.746Z,5.18
2022-10-06T00:50:11.799Z,6.05
2022-10-06T00:50:44.434Z,5.47
2022-10-06T00:51:16.724Z,6.68
2022-10-06T00:52:00.455Z,5.82
2022-10-06T00:52:32.614Z,6.07
2022-10-06T00:53:06.223Z,5.90
2022-10-06T00:53:38.315Z,6.97
2022-10-06T00:54:10.682Z,6.35
2022-10-06T00:54:42.952Z,6.45
2022-10-06T00:55:15.391Z,6.00
2022-10-06T00:55:47.319Z,5.70
2022-10-06T00:56:19.278Z,6.07
2022-10-06T00:56:51.434Z,5.88
2022-10-06T00:57:23.475Z,6.22
2022-10-06T00:57:55.894Z,6.20
2022-10-06T00:58:28.063Z,5.38
2022-10-06T00:59:00.221Z,6.60
2022-10-06T00:59:32.578Z,6.20
2022-10-06T01:00:08.124Z,5.65
2022-10-06T01:00:43.344Z,6.63
2022-10-06T01:01:15.401Z,5.95
2022-10-06T01:02:00.154Z,6.40
2022-10-06T01:02:47.934Z,6.13
2022-10-06T01:03:34.750Z,5.05
2022-10-06T01:04:11.557Z,6.00
2022-10-06T01:04:48.387Z,5.32
2022-10-06T01:05:34.606Z,5.75
2022-10-06T01:06:07.714Z,6.10
2022-10-06T01:06:50.919Z,5.85
2022-10-06T01:07:27.828Z,5.57
2022-10-06T01:07:59.968Z,5.60
2022-10-06T01:08:33.588Z,6.20
2022-10-06T01:09:05.599Z,6.03
2022-10-06T01:09:38.691Z,5.22
2022-10-06T01:10:10.636Z,5.05
2022-10-06T01:10:43.151Z,5.40
2022-10-06T01:11:15.159Z,5.57
2022-10-06T01:11:51.248Z,5.88
2022-10-06T01:12:24.866Z,5.72
2022-10-06T01:12:57.265Z,5.43
2022-10-06T01:13:30.830Z,6.10
2022-10-06T01:14:02.701Z,5.50
2022-10-06T01:14:37.018Z,6.55
2022-10-06T01:15:09.773Z,5.60
2022-10-06T01:15:51.962Z,6.25
2022-10-06T01:16:27.138Z,5.97
2022-10-06T01:17:23.718Z,6.35
2022-10-06T01:18:04.826Z,5.72
2022-10-06T01:18:40.461Z,6.20
2022-10-06T01:19:33.047Z,6.32
2022-10-06T01:20:09.231Z,6.32
2022-10-06T01:20:55.731Z,6.55
2022-10-06T01:21:36.796Z,6.38
2022-10-06T01:22:10.395Z,6.15
2022-10-06T01:22:47.087Z,6.00
2022-10-06T01:23:19.804Z,5.32
2022-10-06T01:23:53.028Z,5.68
2022-10-06T01:24:24.969Z,5.68
2022-10-06T01:24:57.625Z,5.70
2022-10-06T01:25:29.704Z,5.88
2022-10-06T01:26:07.394Z,5.10
2022-10-06T01:26:45.485Z,5.68
2022-10-06T01:27:18.777Z,5.68
2022-10-06T01:27:56.182Z,5.75
2022-10-06T01:28:29.019Z,5.88
2022-10-06T01:29:01.371Z,5.22
2022-10-06T01:29:34.241Z,5.35
2022-10-06T01:30:09.938Z,6.10
2022-10-06T01:30:46.349Z,5.53
2022-10-06T01:31:18.486Z,5.35
2022-10-06T01:31:50.404Z,5.57
2022-10-06T01:32:24.123Z,5.07
2022-10-06T01:32:56.523Z,5.75
2022-10-06T01:33:29.953Z,5.45
2022-10-06T01:34:01.831Z,5.53
2022-10-06T01:34:34.004Z,6.07
2022-10-06T01:35:08.523Z,6.25
2022-10-06T01:35:40.529Z,5.45
2022-10-06T01:36:12.406Z,5.60
2022-10-06T01:36:44.349Z,5.32
2022-10-06T01:37:16.641Z,5.93
2022-10-06T01:37:48.575Z,5.50
2022-10-06T01:38:22.002Z,6.03
2022-10-06T01:38:53.922Z,6.00
2022-10-06T01:39:25.782Z,6.05
2022-10-06T01:39:57.707Z,5.78
2022-10-06T01:40:29.581Z,5.45
2022-10-06T01:41:01.497Z,5.15
2022-10-06T01:41:34.405Z,5.93
2022-10-06T01:42:06.446Z,6.43
2022-10-06T01:42:38.491Z,5.88
2022-10-06T01:43:10.770Z,6.00
2022-10-06T01:43:42.683Z,5.50
2022-10-06T01:44:15.129Z,6.05
2022-10-06T01:44:47.038Z,5.72
2022-10-06T01:45:18.937Z,5.70
2022-10-06T01:45:56.100Z,6.10
2022-10-06T01:46:30.217Z,5.50
2022-10-06T01:47:06.116Z,5.30
2022-10-06T01:47:38.336Z,6.03
2022-10-06T01:48:10.207Z,5.90
2022-10-06T01:48:42.123Z,5.72
2022-10-06T01:49:13.988Z,6.15
2022-10-06T01:49:45.862Z,5.57
2022-10-06T01:50:17.805Z,5.75
2022-10-06T01:50:50.260Z,5.68
2022-10-06T01:51:22.151Z,5.57
2022-10-06T01:51:54.332Z,6.00
2022-10-06T01:52:26.865Z,5.22
2022-10-06T01:52:58.763Z,5.50
2022-10-06T01:53:30.635Z,6.50
2022-10-06T01:54:02.826Z,5.38
2022-10-06T01:54:34.710Z,6.05
2022-10-06T01:55:07.489Z,5.63
2022-10-06T01:55:39.369Z,5.93
2022-10-06T01:56:11.590Z,5.32
2022-10-06T01:56:43.543Z,5.95
2022-10-06T01:57:15.410Z,5.85
2022-10-06T01:57:47.333Z,6.75
2022-10-06T01:58:19.213Z,5.70
2022-10-06T01:58:51.107Z,6.30
2022-10-06T01:59:23.135Z,5.30
2022-10-06T01:59:55.202Z,6.03
2022-10-06T02:00:27.106Z,5.60
2022-10-06T02:01:04.480Z,5.10
2022-10-06T02:01:36.650Z,5.85
2022-10-06T02:02:08.549Z,6.28
2022-10-06T02:02:41.496Z,5.72
2022-10-06T02:03:13.468Z,6.00
2022-10-06T02:03:45.381Z,5.93
2022-10-06T02:04:17.667Z,5.47
2022-10-06T02:04:49.667Z,5.53
2022-10-06T02:05:21.579Z,5.07
2022-10-06T02:05:57.295Z,5.88
2022-10-06T02:06:29.679Z,5.57
2022-10-06T02:07:01.645Z,5.57
2022-10-06T02:07:35.936Z,6.03
2022-10-06T02:08:09.620Z,5.15
2022-10-06T02:08:41.564Z,5.57
2022-10-06T02:09:14.107Z,5.47
2022-10-06T02:09:45.987Z,5.70
2022-10-06T02:10:17.941Z,5.20
2022-10-06T02:10:49.883Z,5.45
2022-10-06T02:11:21.829Z,4.88
2022-10-06T02:11:53.695Z,4.65
2022-10-06T02:12:25.657Z,5.07
2022-10-06T02:12:57.781Z,5.35
2022-10-06T02:13:30.425Z,4.85
2022-10-06T02:14:02.446Z,5.70
2022-10-06T02:14:34.817Z,4.55
2022-10-06T02:15:10.604Z,5.13
2022-10-06T02:15:42.656Z,4.85
2022-10-06T02:16:15.169Z,5.20
2022-10-06T02:16:47.063Z,5.45
2022-10-06T02:17:18.950Z,4.90
2022-10-06T02:17:50.854Z,5.28
2022-10-06T02:18:22.745Z,6.05
2022-10-06T02:18:54.887Z,5.72
2022-10-06T02:19:26.775Z,5.45
2022-10-06T02:19:58.843Z,5.90
2022-10-06T02:20:30.879Z,5.75
2022-10-06T02:21:03.582Z,5.63
2022-10-06T02:21:35.806Z,5.57
2022-10-06T02:22:07.723Z,5.75
2022-10-06T02:22:40.822Z,5.45
2022-10-06T02:23:12.876Z,5.40
2022-10-06T02:23:45.653Z,5.10
2022-10-06T02:24:17.541Z,5.32
2022-10-06T02:24:49.442Z,5.75
2022-10-06T02:25:21.346Z,4.95
2022-10-06T02:26:07.529Z,5.68
2022-10-06T02:26:39.648Z,5.70
2022-10-06T02:27:11.569Z,4.90
2022-10-06T02:27:44.028Z,5.13
2022-10-06T02:28:16.984Z,5.38
2022-10-06T02:28:52.023Z,4.82
2022-10-06T02:29:24.067Z,5.30
2022-10-06T02:29:56.076Z,4.93
2022-10-06T02:30:27.986Z,4.90
2022-10-06T02:31:08.536Z,6.60
2022-10-06T02:31:40.495Z,5.00
2022-10-06T02:32:12.382Z,5.25
2022-10-06T02:32:44.328Z,6.07
2022-10-06T02:33:17.061Z,5.53
2022-10-06T02:33:49.077Z,5.95
2022-10-06T02:34:21.047Z,6.15
2022-10-06T02:34:53.075Z,6.90
2022-10-06T02:35:25.554Z,7.07
2022-10-06T02:35:58.460Z,6.80
2022-10-06T02:36:30.312Z,6.43
2022-10-06T02:37:02.190Z,7.07
2022-10-06T02:37:34.669Z,7.75
2022-10-06T02:38:06.534Z,6.65
2022-10-06T02:38:39.394Z,6.75
2022-10-06T02:39:11.256Z,7.05
2022-10-06T02:39:43.299Z,6.82
2022-10-06T02:40:16.434Z,6.25
2022-10-06T02:40:48.601Z,6.97
2022-10-06T02:41:20.569Z,6.68
2022-10-06T02:41:52.477Z,6.32
2022-10-06T02:42:24.640Z,6.70
2022-10-06T02:42:56.585Z,5.82
2022-10-06T02:43:31.911Z,5.80
2022-10-06T02:44:03.929Z,6.20
2022-10-06T02:44:36.103Z,6.47
2022-10-06T02:45:08.948Z,5.18
2022-10-06T02:45:41.893Z,6.25
2022-10-06T02:46:15.223Z,5.15
2022-10-06T02:46:48.541Z,4.80
2022-10-06T02:47:22.292Z,5.60
2022-10-06T02:47:54.988Z,5.60
2022-10-06T02:48:29.379Z,5.78
2022-10-06T02:49:01.512Z,5.38
2022-10-06T02:49:33.387Z,5.07
2022-10-06T02:50:08.310Z,5.47
2022-10-06T02:50:40.224Z,5.03
2022-10-06T02:51:18.497Z,5.40
2022-10-06T02:51:50.410Z,6.20
2022-10-06T02:52:23.520Z,5.38
2022-10-06T02:52:55.433Z,4.93
2022-10-06T02:53:28.501Z,5.95
2022-10-06T02:54:00.562Z,5.75
2022-10-06T02:54:35.429Z,5.30
2022-10-06T02:55:08.913Z,5.18
2022-10-06T02:55:41.138Z,5.25
2022-10-06T02:56:17.387Z,5.22
2022-10-06T02:56:50.264Z,5.10
2022-10-06T02:57:22.151Z,4.95
2022-10-06T02:57:55.207Z,4.43
2022-10-06T02:58:31.326Z,4.70
2022-10-06T02:59:03.586Z,5.35
2022-10-06T02:59:38.706Z,4.85
2022-10-06T03:00:11.853Z,4.70
2022-10-06T03:00:43.756Z,4.78
2022-10-06T03:01:19.743Z,4.22
2022-10-06T03:01:52.710Z,4.97
2022-10-06T03:02:24.912Z,4.82
2022-10-06T03:02:56.941Z,4.40
2022-10-06T03:03:29.525Z,4.35
2022-10-06T03:04:01.552Z,4.28
2022-10-06T03:04:33.423Z,4.25
2022-10-06T03:05:05.586Z,4.53
2022-10-06T03:05:37.477Z,4.82
2022-10-06T03:06:25.238Z,4.80
2022-10-06T03:06:57.683Z,5.45
2022-10-06T03:07:29.765Z,5.63
2022-10-06T03:08:01.634Z,5.20
2022-10-06T03:08:33.853Z,4.85
2022-10-06T03:09:08.389Z,5.40
2022-10-06T03:09:40.317Z,5.60
2022-10-06T03:10:12.214Z,4.60
2022-10-06T03:10:44.116Z,5.95
2022-10-06T03:11:19.324Z,5.63
2022-10-06T03:11:51.272Z,5.20
2022-10-06T03:12:23.184Z,5.15
2022-10-06T03:12:55.707Z,5.28
2022-10-06T03:13:31.491Z,5.18
2022-10-06T03:14:04.429Z,5.45
2022-10-06T03:14:36.333Z,5.43
2022-10-06T03:15:08.634Z,5.50
2022-10-06T03:15:40.500Z,5.10
2022-10-06T03:16:18.631Z,5.63
2022-10-06T03:16:51.978Z,5.05
2022-10-06T03:17:23.927Z,5.57
2022-10-06T03:17:55.922Z,4.80
2022-10-06T03:18:28.296Z,4.45
2022-10-06T03:19:01.766Z,4.57
2022-10-06T03:19:33.641Z,5.13
2022-10-06T03:20:06.269Z,5.22
2022-10-06T03:20:38.137Z,4.75
2022-10-06T03:21:10.013Z,5.38
2022-10-06T03:21:44.160Z,5.00
2022-10-06T03:22:16.050Z,5.28
2022-10-06T03:22:47.956Z,5.20
2022-10-06T03:23:19.893Z,5.28
2022-10-06T03:23:53.707Z,5.47
2022-10-06T03:24:25.665Z,5.50
2022-10-06T03:24:57.846Z,5.68
2022-10-06T03:25:29.759Z,4.40
2022-10-06T03:26:01.803Z,6.22
2022-10-06T03:26:37.696Z,4.93
2022-10-06T03:27:09.731Z,5.15
2022-10-06T03:27:41.624Z,5.72
2022-10-06T03:28:13.522Z,5.30
2022-10-06T03:28:46.044Z,5.40
2022-10-06T03:29:18.078Z,4.75
2022-10-06T03:29:49.958Z,5.25
2022-10-06T03:30:21.868Z,5.18
2022-10-06T03:30:54.917Z,5.40
2022-10-06T03:31:27.733Z,4.95
2022-10-06T03:31:59.788Z,4.57
2022-10-06T03:32:31.636Z,5.63
2022-10-06T03:33:03.539Z,5.45
2022-10-06T03:33:35.838Z,5.50
2022-10-06T03:34:08.061Z,5.78
2022-10-06T03:34:39.925Z,5.32
2022-10-06T03:35:11.807Z,5.78
2022-10-06T03:35:43.934Z,5.45
2022-10-06T03:36:19.834Z,5.30
2022-10-06T03:36:51.832Z,4.72
2022-10-06T03:37:23.846Z,7.22
2022-10-06T03:37:56.031Z,4.78
2022-10-06T03:38:28.357Z,5.07
2022-10-06T03:39:01.831Z,5.07
2022-10-06T03:39:34.305Z,4.30
2022-10-06T03:40:06.873Z,4.88
2022-10-06T03:40:38.760Z,4.45
2022-10-06T03:41:27.818Z,4.85
2022-10-06T03:41:59.713Z,5.00
2022-10-06T03:42:32.278Z,4.45
2022-10-06T03:43:04.491Z,4.85
2022-10-06T03:43:37.492Z,5.68
2022-10-06T03:44:09.398Z,5.05
2022-10-06T03:44:41.480Z,5.22
2022-10-06T03:45:13.399Z,4.80
2022-10-06T03:45:57.157Z,5.70
2022-10-06T03:46:32.592Z,5.70
2022-10-06T03:47:04.624Z,4.75
2022-10-06T03:47:36.640Z,4.65
2022-10-06T03:48:08.563Z,4.88
2022-10-06T03:48:40.504Z,5.35
2022-10-06T03:49:12.391Z,4.85
2022-10-06T03:49:44.345Z,4.88
2022-10-06T03:50:17.127Z,4.90
2022-10-06T03:50:57.213Z,4.80
2022-10-06T03:51:38.929Z,4.90
2022-10-06T03:52:10.849Z,4.72
2022-10-06T03:52:42.713Z,4.43
2022-10-06T03:53:14.593Z,5.00
2022-10-06T03:53:50.224Z,4.40
2022-10-06T03:54:22.167Z,5.10
2022-10-06T03:54:54.538Z,4.68
2022-10-06T03:55:26.464Z,4.40
2022-10-06T03:56:16.514Z,5.20
2022-10-06T03:56:48.435Z,4.32
2022-10-06T03:57:20.352Z,4.18
2022-10-06T03:57:52.223Z,4.53
2022-10-06T03:58:24.138Z,4.07
2022-10-06T03:59:02.722Z,3.85
2022-10-06T03:59:34.844Z,4.90
2022-10-06T04:00:07.435Z,5.10
2022-10-06T04:00:39.403Z,5.05
2022-10-06T04:01:26.190Z,5.15
2022-10-06T04:01:58.482Z,4.00
2022-10-06T04:02:30.406Z,4.78
2022-10-06T04:03:02.406Z,4.45
2022-10-06T04:03:34.900Z,5.00
2022-10-06T04:04:07.708Z,5.43
2022-10-06T04:04:39.593Z,4.82
2022-10-06T04:05:11.807Z,4.93
2022-10-06T04:06:00.351Z,4.57
2022-10-06T04:06:37.040Z,5.20
2022-10-06T04:07:09.064Z,4.55
2022-10-06T04:07:40.971Z,5.22
2022-10-06T04:08:14.751Z,5.45
2022-10-06T04:08:49.350Z,4.97
2022-10-06T04:09:21.251Z,5.40
2022-10-06T04:09:53.231Z,5.25
2022-10-06T04:10:25.113Z,5.00
2022-10-06T04:11:11.246Z,4.95
2022-10-06T04:11:44.947Z,4.70
2022-10-06T04:12:16.835Z,4.60
2022-10-06T04:12:48.715Z,4.32
2022-10-06T04:13:22.346Z,4.22
2022-10-06T04:14:03.578Z,4.85
2022-10-06T04:14:35.663Z,4.60
2022-10-06T04:15:08.174Z,4.30
2022-10-06T04:15:40.055Z,4.22
2022-10-06T04:16:21.201Z,4.53
2022-10-06T04:16:53.359Z,4.40
2022-10-06T04:17:25.245Z,4.80
2022-10-06T04:17:57.114Z,4.50
2022-10-06T04:18:29.177Z,4.65
2022-10-06T04:19:04.514Z,4.47
2022-10-06T04:19:36.474Z,4.32
2022-10-06T04:20:08.641Z,4.50
2022-10-06T04:20:41.066Z,3.75
2022-10-06T04:21:13.612Z,3.95
2022-10-06T04:21:47.887Z,4.18
2022-10-06T04:22:19.905Z,4.28
2022-10-06T04:22:51.852Z,4.20
2022-10-06T04:23:23.848Z,3.95
2022-10-06T04:24:00.287Z,4.18
2022-10-06T04:24:32.266Z,4.30
2022-10-06T04:25:04.418Z,3.90
2022-10-06T04:25:36.388Z,4.75
2022-10-06T04:26:13.681Z,4.22
2022-10-06T04:26:48.886Z,4.25
2022-10-06T04:27:29.611Z,4.00
2022-10-06T04:28:01.718Z,4.22
2022-10-06T04:28:34.623Z,4.38
2022-10-06T04:29:07.332Z,4.75
2022-10-06T04:29:39.224Z,4.00
2022-10-06T04:30:12.202Z,4.20
2022-10-06T04:30:44.063Z,4.20
2022-10-06T04:31:25.878Z,4.07
2022-10-06T04:31:57.814Z,3.90
2022-10-06T04:32:29.868Z,3.67
2022-10-06T04:33:01.738Z,4.38
2022-10-06T04:33:34.273Z,4.65
2022-10-06T04:34:07.401Z,3.90
2022-10-06T04:34:39.332Z,4.45
2022-10-06T04:35:11.236Z,4.50
2022-10-06T04:35:43.188Z,4.05
2022-10-06T04:36:22.907Z,3.83
2022-10-06T04:36:54.860Z,3.97
2022-10-06T04:37:28.371Z,4.50
2022-10-06T04:38:00.246Z,3.90
2022-10-06T04:38:36.700Z,4.30
2022-10-06T04:39:10.838Z,4.03
2022-10-06T04:39:42.835Z,4.00
2022-10-06T04:40:14.841Z,4.03
2022-10-06T04:40:46.710Z,4.57
2022-10-06T04:41:20.466Z,3.92
2022-10-06T04:41:52.438Z,4.50
2022-10-06T04:42:24.647Z,3.97
2022-10-06T04:42:57.470Z,4.20
2022-10-06T04:43:29.491Z,4.00
2022-10-06T04:44:03.491Z,3.85
2022-10-06T04:44:35.424Z,4.50
2022-10-06T04:45:08.147Z,4.88
2022-10-06T04:45:40.132Z,4.53
2022-10-06T05:36:28.910Z,3.50
2022-10-06T05:37:01.125Z,3.70
2022-10-06T05:37:33.194Z,3.45
2022-10-06T05:38:05.313Z,4.00
2022-10-06T05:38:37.932Z,4.30
2022-10-06T05:39:09.955Z,4.10
2022-10-06T05:39:41.953Z,4.53
2022-10-06T05:40:14.025Z,4.55
2022-10-06T05:40:46.088Z,4.13
2022-10-06T05:41:20.360Z,3.95
2022-10-06T05:41:52.752Z,4.50
2022-10-06T05:42:28.816Z,4.22
2022-10-06T05:43:02.074Z,3.70
2022-10-06T05:43:35.556Z,4.53
2022-10-06T05:44:08.848Z,4.15
2022-10-06T05:44:40.907Z,4.35
2022-10-06T05:45:13.114Z,4.63
2022-10-06T05:45:56.851Z,4.30
2022-10-06T05:46:31.691Z,4.45
2022-10-06T05:47:03.679Z,4.30
2022-10-06T05:47:35.881Z,4.47
2022-10-06T05:48:09.173Z,4.15
2022-10-06T05:48:41.360Z,4.75
2022-10-06T05:49:13.638Z,4.15
2022-10-06T05:49:45.629Z,4.55
2022-10-06T05:50:19.514Z,4.32
2022-10-06T05:51:08.083Z,5.20
2022-10-06T05:51:40.683Z,4.80
2022-10-06T05:52:12.613Z,4.68
2022-10-06T05:52:44.567Z,4.55
2022-10-06T05:53:16.610Z,4.18
2022-10-06T05:53:48.938Z,4.35
2022-10-06T05:54:21.032Z,4.60
2022-10-06T05:54:53.177Z,4.55
2022-10-06T05:55:26.507Z,4.60
2022-10-06T05:56:13.200Z,5.05
2022-10-06T05:56:45.498Z,4.35
2022-10-06T05:57:17.567Z,4.63
2022-10-06T05:57:49.768Z,4.40
2022-10-06T05:58:21.816Z,4.95
2022-10-06T05:58:56.039Z,4.88
2022-10-06T05:59:28.005Z,4.65
2022-10-06T06:00:00.086Z,4.60
2022-10-06T06:00:32.128Z,4.20
2022-10-06T06:01:15.483Z,5.18
2022-10-06T06:01:47.527Z,4.10
2022-10-06T06:02:19.721Z,4.50
2022-10-06T06:02:51.947Z,4.43
2022-10-06T06:03:24.085Z,4.97
2022-10-06T06:04:03.027Z,4.25
2022-10-06T06:04:35.223Z,4.65
2022-10-06T06:05:07.421Z,4.40
2022-10-06T06:05:43.264Z,4.68
2022-10-06T06:06:35.155Z,4.70
2022-10-06T06:07:07.244Z,4.57
2022-10-06T06:07:39.325Z,4.65
2022-10-06T06:08:11.956Z,4.57
2022-10-06T06:08:44.352Z,4.20
2022-10-06T06:09:21.828Z,4.85
2022-10-06T06:09:53.942Z,5.10
2022-10-06T06:10:26.160Z,4.95
2022-10-06T06:11:07.785Z,4.57
2022-10-06T06:11:49.143Z,4.90
2022-10-06T06:12:21.165Z,4.32
2022-10-06T06:12:53.122Z,5.20
2022-10-06T06:13:25.230Z,4.35
2022-10-06T06:14:03.656Z,4.72
2022-10-06T06:14:54.222Z,4.88
2022-10-06T06:15:44.574Z,5.68
2022-10-06T06:16:16.680Z,5.07
2022-10-06T06:16:48.815Z,7.00
2022-10-06T06:17:20.925Z,7.70
2022-10-06T06:17:52.922Z,10.35
2022-10-06T06:18:24.941Z,12.77
2022-10-06T06:18:57.767Z,14.23
2022-10-06T06:19:29.916Z,14.32
2022-10-06T06:20:02.022Z,13.93
2022-10-06T06:20:34.121Z,13.98
2022-10-06T06:21:09.626Z,14.00
2022-10-06T06:21:41.813Z,10.73
2022-10-06T06:22:13.882Z,9.30
2022-10-06T06:22:45.925Z,7.90
2022-10-06T06:23:17.963Z,7.25
2022-10-06T06:23:50.504Z,6.07
2022-10-06T06:24:22.646Z,5.97
2022-10-06T06:24:54.787Z,5.50
2022-10-06T06:25:26.880Z,4.70
2022-10-06T06:26:04.140Z,5.32
2022-10-06T06:26:37.948Z,5.53
2022-10-06T06:27:10.052Z,5.38
2022-10-06T06:27:42.201Z,7.00
2022-10-06T06:28:14.271Z,6.32
2022-10-06T06:28:47.797Z,5.55
2022-10-06T06:29:19.918Z,5.53
2022-10-06T06:29:51.906Z,5.55
2022-10-06T06:30:24.448Z,5.80
2022-10-06T06:31:07.196Z,5.82
2022-10-06T06:31:43.875Z,5.03
2022-10-06T06:32:15.936Z,4.60
2022-10-06T06:32:47.939Z,4.70
2022-10-06T06:33:19.839Z,4.75
2022-10-06T06:33:55.098Z,3.90
2022-10-06T06:34:27.469Z,5.03
2022-10-06T06:34:59.547Z,5.68
2022-10-06T06:35:31.639Z,4.30
2022-10-06T06:36:28.071Z,4.28
2022-10-06T06:37:06.766Z,4.95
2022-10-06T06:37:40.551Z,4.18
2022-10-06T06:38:12.736Z,4.32
2022-10-06T06:38:52.099Z,4.85
2022-10-06T06:39:25.532Z,5.38
2022-10-06T06:39:57.668Z,5.05
2022-10-06T06:40:29.724Z,4.82
2022-10-06T06:41:01.713Z,4.97
2022-10-06T06:41:39.941Z,5.15
2022-10-06T06:42:11.932Z,4.88
2022-10-06T06:42:43.957Z,5.18
2022-10-06T06:43:16.027Z,4.28
2022-10-06T06:43:49.938Z,4.50
2022-10-06T06:44:22.306Z,4.45
2022-10-06T06:44:54.794Z,4.57
2022-10-06T06:45:26.850Z,4.38
2022-10-06T06:46:05.326Z,4.57
2022-10-06T06:46:38.737Z,4.43
2022-10-06T06:47:10.804Z,5.93
2022-10-06T06:47:42.837Z,4.72
2022-10-06T06:48:16.498Z,4.80
2022-10-06T06:48:50.028Z,4.75
2022-10-06T06:49:22.663Z,4.30
2022-10-06T06:49:55.129Z,4.70
2022-10-06T06:50:27.170Z,4.75
2022-10-06T06:50:59.226Z,5.00
2022-10-06T06:51:37.871Z,5.55
2022-10-06T06:52:10.075Z,4.82
2022-10-06T06:52:43.962Z,4.40
2022-10-06T06:53:16.498Z,4.80
2022-10-06T06:53:49.095Z,5.07
2022-10-06T06:54:21.246Z,5.20
2022-10-06T06:54:53.265Z,4.78
2022-10-06T06:55:25.364Z,4.70
2022-10-06T06:55:58.138Z,5.22
2022-10-06T06:56:38.893Z,5.03
2022-10-06T06:57:10.955Z,4.47
2022-10-06T06:57:42.942Z,5.25
2022-10-06T06:58:14.986Z,4.97
2022-10-06T06:58:48.102Z,4.20
2022-10-06T06:59:20.560Z,4.72
2022-10-06T06:59:52.624Z,4.65
2022-10-06T07:00:24.944Z,4.35
2022-10-06T07:01:13.913Z,4.95
2022-10-06T07:01:47.596Z,4.82
2022-10-06T07:02:19.751Z,4.40
2022-10-06T07:02:56.190Z,4.32
2022-10-06T07:03:52.574Z,4.38
2022-10-06T07:04:22.244Z,4.70
2022-10-06T07:04:54.368Z,4.20
2022-10-06T07:05:27.292Z,5.25
2022-10-06T07:06:12.258Z,5.15
2022-10-06T07:06:57.212Z,4.50
2022-10-06T07:07:29.459Z,4.85
2022-10-06T07:08:01.555Z,4.20
2022-10-06T07:08:33.727Z,4.65
2022-10-06T07:09:06.195Z,3.95
2022-10-06T07:09:41.291Z,4.75
2022-10-06T07:10:13.450Z,4.03
2022-10-06T07:10:46.964Z,3.95
2022-10-06T07:11:31.386Z,4.18
2022-10-06T07:12:03.629Z,3.90
2022-10-06T07:12:35.656Z,4.38
2022-10-06T07:13:07.848Z,4.18
2022-10-06T07:13:40.742Z,4.18
2022-10-06T07:14:12.961Z,4.22
2022-10-06T07:15:03.536Z,4.50
2022-10-06T07:15:54.318Z,4.57
2022-10-06T07:16:45.114Z,5.32
2022-10-06T07:17:35.839Z,4.90
2022-10-06T07:18:31.018Z,4.60
2022-10-06T07:19:24.975Z,4.40
2022-10-06T07:19:57.158Z,4.32
2022-10-06T07:20:47.611Z,4.80
2022-10-06T07:21:37.916Z,4.28
2022-10-06T07:22:28.555Z,4.28
2022-10-06T07:23:19.536Z,3.42
2022-10-06T07:24:11.207Z,4.40
2022-10-06T07:25:03.190Z,3.65
2022-10-06T07:25:35.087Z,3.92
2022-10-06T07:26:07.355Z,4.07
2022-10-06T07:26:39.387Z,4.72
2022-10-06T07:27:11.665Z,4.10
2022-10-06T07:27:46.180Z,4.30
2022-10-06T07:28:18.256Z,5.25
2022-10-06T07:28:50.321Z,4.10
2022-10-06T07:29:22.401Z,3.55
2022-10-06T07:29:56.454Z,4.35
2022-10-06T07:30:29.674Z,4.07
2022-10-06T07:31:01.967Z,4.55
2022-10-06T07:31:36.520Z,4.82
2022-10-06T07:32:08.572Z,5.38
2022-10-06T07:32:40.777Z,5.00
2022-10-06T07:33:14.764Z,5.15
2022-10-06T07:33:46.835Z,5.15
2022-10-06T07:34:18.997Z,5.25
2022-10-06T07:34:52.222Z,4.72
2022-10-06T07:35:25.809Z,5.53
2022-10-06T07:35:57.933Z,4.90
2022-10-06T07:36:33.090Z,5.25
2022-10-06T07:37:06.516Z,5.25
2022-10-06T07:37:39.017Z,5.40
2022-10-06T07:38:11.013Z,4.85
2022-10-06T07:38:43.187Z,5.05
2022-10-06T07:39:15.246Z,4.60
2022-10-06T07:39:49.794Z,4.85
2022-10-06T07:40:21.794Z,4.05
2022-10-06T07:41:17.707Z,4.30
2022-10-06T07:41:48.757Z,3.88
2022-10-06T07:42:21.367Z,4.25
2022-10-06T07:42:53.358Z,4.53
2022-10-06T07:43:25.463Z,5.25
2022-10-06T07:43:57.716Z,4.57
2022-10-06T07:44:29.779Z,4.50
2022-10-06T07:45:20.133Z,3.75
2022-10-06T07:45:52.301Z,4.00
2022-10-06T07:46:25.206Z,3.88
2022-10-06T07:46:57.251Z,3.70
2022-10-06T07:47:29.271Z,4.30
2022-10-06T07:48:02.157Z,3.92
2022-10-06T07:48:34.350Z,3.78
2022-10-06T07:49:06.509Z,3.85
2022-10-06T07:49:38.560Z,4.00
2022-10-06T07:50:13.158Z,3.95
2022-10-06T07:50:48.351Z,3.90
2022-10-06T07:51:20.570Z,4.10
2022-10-06T07:51:52.807Z,3.75
2022-10-06T07:52:29.048Z,4.18
2022-10-06T07:53:08.768Z,4.13
2022-10-06T07:53:41.318Z,4.45
2022-10-06T07:54:13.554Z,4.32
2022-10-06T07:54:45.690Z,4.50
2022-10-06T07:55:19.225Z,3.80
2022-10-06T07:55:52.122Z,4.57
2022-10-06T07:56:24.256Z,4.10
2022-10-06T07:56:56.654Z,4.50
2022-10-06T07:57:35.533Z,4.90
2022-10-06T07:58:18.986Z,4.70
2022-10-06T07:58:51.550Z,4.22
2022-10-06T07:59:23.688Z,4.75
2022-10-06T08:00:00.459Z,4.50
2022-10-06T08:00:34.807Z,4.28
2022-10-06T08:01:09.688Z,4.38
2022-10-06T08:01:44.200Z,3.40
2022-10-06T08:02:18.166Z,3.90
2022-10-06T08:02:50.316Z,3.95
2022-10-06T08:03:22.580Z,4.40
2022-10-06T08:03:54.696Z,4.50
2022-10-06T08:04:26.725Z,4.90
2022-10-06T08:04:58.756Z,5.05
2022-10-06T08:05:32.278Z,4.70
2022-10-06T08:06:04.971Z,4.25
2022-10-06T08:06:36.889Z,3.95
2022-10-06T08:07:10.660Z,5.10
2022-10-06T08:07:42.797Z,4.20
2022-10-06T08:08:15.783Z,4.70
2022-10-06T08:08:52.682Z,5.70
2022-10-06T08:09:25.064Z,5.25
2022-10-06T08:09:57.152Z,4.80
2022-10-06T08:10:29.189Z,4.45
2022-10-06T08:11:01.944Z,5.07
2022-10-06T08:11:34.316Z,4.13
2022-10-06T08:12:26.391Z,5.15
2022-10-06T08:12:58.676Z,4.85
2022-10-06T08:13:33.922Z,4.40
2022-10-06T08:14:06.107Z,5.32
2022-10-06T08:14:38.218Z,4.25
2022-10-06T08:15:11.706Z,5.47
2022-10-06T08:15:50.433Z,5.28
2022-10-06T08:16:25.978Z,8.23
2022-10-06T08:16:59.061Z,7.07
2022-10-06T08:17:31.477Z,6.63
2022-10-06T08:18:12.180Z,6.57
2022-10-06T08:18:54.154Z,5.38
2022-10-06T08:19:26.210Z,6.45
2022-10-06T08:19:58.262Z,6.25
2022-10-06T08:20:30.519Z,5.40
2022-10-06T08:21:10.228Z,5.47
2022-10-06T08:21:42.360Z,5.28
2022-10-06T08:22:16.115Z,5.22
2022-10-06T08:22:48.630Z,5.10
2022-10-06T08:23:20.724Z,5.88